sensor_id;sensor_type;location;lat;lon;timestamp;pressure;altitude;pressure_sealevel;temperature;humidity
64792;BME280;51226;47.504;19.074;2023-04-26T00:01:55;99565.47;;;11.86;58.59
64792;BME280;51226;47.504;19.074;2023-04-26T00:04:59;99565.28;;;11.75;58.77
64792;BME280;51226;47.504;19.074;2023-04-26T00:08:03;99566.91;;;11.68;59.36
64792;BME280;51226;47.504;19.074;2023-04-26T00:11:06;99572.13;;;11.68;59.35
64792;BME280;51226;47.504;19.074;2023-04-26T00:14:08;99577.78;;;11.90;58.27
64792;BME280;51226;47.504;19.074;2023-04-26T00:17:11;99569.72;;;11.81;58.31
64792;BME280;51226;47.504;19.074;2023-04-26T00:20:14;99569.50;;;11.68;58.88
64792;BME280;51226;47.504;19.074;2023-04-26T00:23:17;99565.91;;;11.63;59.27
64792;BME280;51226;47.504;19.074;2023-04-26T00:26:19;99576.38;;;11.63;59.51
64792;BME280;51226;47.504;19.074;2023-04-26T00:29:22;99582.03;;;11.85;58.69
64792;BME280;51226;47.504;19.074;2023-04-26T00:32:25;99583.41;;;11.67;59.07
64792;BME280;51226;47.504;19.074;2023-04-26T00:35:28;99597.34;;;11.66;59.49
64792;BME280;51226;47.504;19.074;2023-04-26T00:38:30;99596.37;;;11.63;59.62
64792;BME280;51226;47.504;19.074;2023-04-26T00:41:33;99597.25;;;11.63;59.79
64792;BME280;51226;47.504;19.074;2023-04-26T00:44:36;99603.38;;;11.65;59.88
64792;BME280;51226;47.504;19.074;2023-04-26T00:47:41;99601.69;;;11.67;59.56
64792;BME280;51226;47.504;19.074;2023-04-26T00:50:44;99600.09;;;11.74;59.34
64792;BME280;51226;47.504;19.074;2023-04-26T00:53:49;99608.22;;;11.88;58.80
64792;BME280;51226;47.504;19.074;2023-04-26T00:56:51;99602.53;;;11.65;59.65
64792;BME280;51226;47.504;19.074;2023-04-26T00:59:56;99607.63;;;11.60;59.57
64792;BME280;51226;47.504;19.074;2023-04-26T01:02:58;99606.84;;;11.63;59.36
64792;BME280;51226;47.504;19.074;2023-04-26T01:06:01;99611.66;;;11.46;60.26
64792;BME280;51226;47.504;19.074;2023-04-26T01:09:04;99610.97;;;11.53;59.59
64792;BME280;51226;47.504;19.074;2023-04-26T01:12:12;99603.84;;;11.46;59.79
64792;BME280;51226;47.504;19.074;2023-04-26T01:15:15;99615.72;;;11.31;60.31
64792;BME280;51226;47.504;19.074;2023-04-26T01:18:18;99617.47;;;11.32;60.08
64792;BME280;51226;47.504;19.074;2023-04-26T01:21:21;99620.13;;;11.34;59.93
64792;BME280;51226;47.504;19.074;2023-04-26T01:24:24;99617.22;;;11.20;60.16
64792;BME280;51226;47.504;19.074;2023-04-26T01:27:27;99621.28;;;11.09;60.47
64792;BME280;51226;47.504;19.074;2023-04-26T01:30:29;99627.28;;;11.05;60.47
64792;BME280;51226;47.504;19.074;2023-04-26T01:33:32;99626.53;;;11.10;60.25
64792;BME280;51226;47.504;19.074;2023-04-26T01:36:34;99642.03;;;11.03;60.62
64792;BME280;51226;47.504;19.074;2023-04-26T01:39:37;99628.13;;;11.04;60.25
64792;BME280;51226;47.504;19.074;2023-04-26T01:42:40;99637.31;;;10.88;60.84
64792;BME280;51226;47.504;19.074;2023-04-26T01:45:46;99641.69;;;10.89;60.37
64792;BME280;51226;47.504;19.074;2023-04-26T01:49:02;99649.28;;;10.80;60.73
64792;BME280;51226;47.504;19.074;2023-04-26T01:52:05;99646.47;;;10.72;60.90
64792;BME280;51226;47.504;19.074;2023-04-26T01:55:08;99643.78;;;10.69;60.94
64792;BME280;51226;47.504;19.074;2023-04-26T01:58:10;99651.63;;;10.69;60.85
64792;BME280;51226;47.504;19.074;2023-04-26T02:01:13;99646.31;;;10.64;61.18
64792;BME280;51226;47.504;19.074;2023-04-26T02:04:19;99656.97;;;10.73;60.30
64792;BME280;51226;47.504;19.074;2023-04-26T02:07:21;99653.44;;;10.71;60.65
64792;BME280;51226;47.504;19.074;2023-04-26T02:10:26;99658.41;;;10.62;60.54
64792;BME280;51226;47.504;19.074;2023-04-26T02:13:29;99665.50;;;10.68;60.24
64792;BME280;51226;47.504;19.074;2023-04-26T02:16:32;99660.19;;;10.63;60.43
64792;BME280;51226;47.504;19.074;2023-04-26T02:19:35;99665.47;;;10.66;60.17
64792;BME280;51226;47.504;19.074;2023-04-26T02:22:38;99665.37;;;10.63;60.06
64792;BME280;51226;47.504;19.074;2023-04-26T02:25:40;99669.66;;;10.60;60.02
64792;BME280;51226;47.504;19.074;2023-04-26T02:28:44;99663.63;;;10.62;59.68
64792;BME280;51226;47.504;19.074;2023-04-26T02:31:47;99667.13;;;10.63;59.37
64792;BME280;51226;47.504;19.074;2023-04-26T02:34:50;99663.69;;;10.65;59.33
64792;BME280;51226;47.504;19.074;2023-04-26T02:37:54;99672.94;;;10.52;59.50
64792;BME280;51226;47.504;19.074;2023-04-26T02:40:58;99677.72;;;10.37;59.98
64792;BME280;51226;47.504;19.074;2023-04-26T02:44:00;99672.47;;;10.35;59.85
64792;BME280;51226;47.504;19.074;2023-04-26T02:47:03;99672.63;;;10.42;59.86
64792;BME280;51226;47.504;19.074;2023-04-26T02:50:06;99664.66;;;10.35;59.92
64792;BME280;51226;47.504;19.074;2023-04-26T02:53:10;99679.53;;;10.40;59.49
64792;BME280;51226;47.504;19.074;2023-04-26T02:56:13;99677.62;;;10.32;59.86
64792;BME280;51226;47.504;19.074;2023-04-26T02:59:15;99677.81;;;10.40;59.23
64792;BME280;51226;47.504;19.074;2023-04-26T03:02:18;99682.84;;;10.34;59.83
64792;BME280;51226;47.504;19.074;2023-04-26T03:05:21;99692.50;;;10.36;59.58
64792;BME280;51226;47.504;19.074;2023-04-26T03:08:24;99697.56;;;10.32;59.44
64792;BME280;51226;47.504;19.074;2023-04-26T03:11:27;99697.38;;;10.26;59.98
64792;BME280;51226;47.504;19.074;2023-04-26T03:14:30;99713.09;;;10.29;59.47
64792;BME280;51226;47.504;19.074;2023-04-26T03:17:33;99716.47;;;10.25;59.68
64792;BME280;51226;47.504;19.074;2023-04-26T03:20:36;99723.00;;;10.39;58.58
64792;BME280;51226;47.504;19.074;2023-04-26T03:23:39;99716.72;;;10.34;58.18
64792;BME280;51226;47.504;19.074;2023-04-26T03:26:42;99724.09;;;10.18;58.92
64792;BME280;51226;47.504;19.074;2023-04-26T03:29:45;99724.13;;;10.20;58.40
64792;BME280;51226;47.504;19.074;2023-04-26T03:32:48;99737.78;;;10.11;59.30
64792;BME280;51226;47.504;19.074;2023-04-26T03:35:51;99733.41;;;10.10;59.42
64792;BME280;51226;47.504;19.074;2023-04-26T03:38:53;99742.03;;;10.08;59.17
64792;BME280;51226;47.504;19.074;2023-04-26T03:41:56;99740.50;;;10.14;59.13
64792;BME280;51226;47.504;19.074;2023-04-26T03:44:59;99748.56;;;10.24;59.55
64792;BME280;51226;47.504;19.074;2023-04-26T03:48:01;99747.53;;;10.18;59.72
64792;BME280;51226;47.504;19.074;2023-04-26T03:51:04;99745.84;;;10.20;59.40
64792;BME280;51226;47.504;19.074;2023-04-26T03:54:07;99752.91;;;10.23;58.86
64792;BME280;51226;47.504;19.074;2023-04-26T03:57:10;99752.66;;;10.15;58.83
64792;BME280;51226;47.504;19.074;2023-04-26T04:00:13;99750.88;;;10.13;58.76
64792;BME280;51226;47.504;19.074;2023-04-26T04:03:16;99755.19;;;10.12;58.98
64792;BME280;51226;47.504;19.074;2023-04-26T04:06:19;99760.38;;;10.11;58.75
64792;BME280;51226;47.504;19.074;2023-04-26T04:09:24;99771.72;;;10.13;58.70
64792;BME280;51226;47.504;19.074;2023-04-26T04:12:28;99764.87;;;10.16;58.68
64792;BME280;51226;47.504;19.074;2023-04-26T04:15:30;99769.31;;;10.20;58.42
64792;BME280;51226;47.504;19.074;2023-04-26T04:18:33;99779.81;;;10.24;58.00
64792;BME280;51226;47.504;19.074;2023-04-26T04:21:35;99774.06;;;10.34;56.70
64792;BME280;51226;47.504;19.074;2023-04-26T04:24:39;99772.41;;;10.36;56.73
64792;BME280;51226;47.504;19.074;2023-04-26T04:27:43;99767.34;;;10.42;55.48
64792;BME280;51226;47.504;19.074;2023-04-26T04:30:46;99756.94;;;10.42;55.41
64792;BME280;51226;47.504;19.074;2023-04-26T04:33:49;99779.44;;;10.38;55.71
64792;BME280;51226;47.504;19.074;2023-04-26T04:36:52;99781.03;;;10.33;56.26
64792;BME280;51226;47.504;19.074;2023-04-26T04:39:55;99789.81;;;10.37;56.17
64792;BME280;51226;47.504;19.074;2023-04-26T04:42:58;99797.72;;;10.40;56.89
64792;BME280;51226;47.504;19.074;2023-04-26T04:46:02;99809.31;;;10.50;56.94
64792;BME280;51226;47.504;19.074;2023-04-26T04:49:05;99819.00;;;10.55;56.42
64792;BME280;51226;47.504;19.074;2023-04-26T04:52:10;99810.59;;;10.64;55.54
64792;BME280;51226;47.504;19.074;2023-04-26T04:55:13;99823.50;;;10.60;55.60
64792;BME280;51226;47.504;19.074;2023-04-26T04:58:16;99821.66;;;10.57;56.23
64792;BME280;51226;47.504;19.074;2023-04-26T05:01:19;99826.25;;;10.64;55.47
64792;BME280;51226;47.504;19.074;2023-04-26T05:04:23;99832.34;;;10.65;55.64
64792;BME280;51226;47.504;19.074;2023-04-26T05:07:26;99840.97;;;10.64;55.65
64792;BME280;51226;47.504;19.074;2023-04-26T05:10:30;99843.44;;;10.57;55.74
64792;BME280;51226;47.504;19.074;2023-04-26T05:13:33;99839.81;;;10.54;55.89
64792;BME280;51226;47.504;19.074;2023-04-26T05:16:35;99840.31;;;10.41;56.85
64792;BME280;51226;47.504;19.074;2023-04-26T05:19:40;99842.22;;;10.46;57.83
64792;BME280;51226;47.504;19.074;2023-04-26T05:22:42;99847.22;;;10.69;56.23
64792;BME280;51226;47.504;19.074;2023-04-26T05:25:46;99847.97;;;10.65;56.31
64792;BME280;51226;47.504;19.074;2023-04-26T05:28:49;99851.41;;;10.64;56.37
64792;BME280;51226;47.504;19.074;2023-04-26T05:31:52;99852.44;;;10.69;56.01
64792;BME280;51226;47.504;19.074;2023-04-26T05:34:55;99857.53;;;10.64;56.12
64792;BME280;51226;47.504;19.074;2023-04-26T05:37:58;99861.25;;;10.74;55.69
64792;BME280;51226;47.504;19.074;2023-04-26T05:41:01;99857.00;;;10.76;55.26
64792;BME280;51226;47.504;19.074;2023-04-26T05:44:04;99859.94;;;10.88;53.90
64792;BME280;51226;47.504;19.074;2023-04-26T05:47:07;99862.50;;;10.87;53.86
64792;BME280;51226;47.504;19.074;2023-04-26T05:50:10;99865.06;;;10.85;54.35
64792;BME280;51226;47.504;19.074;2023-04-26T05:53:13;99868.78;;;10.93;54.04
64792;BME280;51226;47.504;19.074;2023-04-26T05:56:16;99865.06;;;11.17;52.31
64792;BME280;51226;47.504;19.074;2023-04-26T05:59:18;99880.88;;;11.22;51.84
64792;BME280;51226;47.504;19.074;2023-04-26T06:02:21;99882.28;;;11.10;52.54
64792;BME280;51226;47.504;19.074;2023-04-26T06:05:24;99882.69;;;11.24;51.39
64792;BME280;51226;47.504;19.074;2023-04-26T06:08:27;99880.00;;;11.21;51.41
64792;BME280;51226;47.504;19.074;2023-04-26T06:11:30;99880.09;;;11.24;51.09
64792;BME280;51226;47.504;19.074;2023-04-26T06:14:33;99882.72;;;11.26;51.36
64792;BME280;51226;47.504;19.074;2023-04-26T06:17:36;99891.06;;;11.46;49.44
64792;BME280;51226;47.504;19.074;2023-04-26T06:20:38;99893.69;;;11.46;49.68
64792;BME280;51226;47.504;19.074;2023-04-26T06:23:41;99904.91;;;11.42;50.08
64792;BME280;51226;47.504;19.074;2023-04-26T06:26:44;99901.13;;;11.64;49.63
64792;BME280;51226;47.504;19.074;2023-04-26T06:29:47;99903.03;;;11.70;49.52
64792;BME280;51226;47.504;19.074;2023-04-26T06:32:51;99908.72;;;11.88;47.98
64792;BME280;51226;47.504;19.074;2023-04-26T06:35:54;99902.16;;;12.04;47.46
64792;BME280;51226;47.504;19.074;2023-04-26T06:38:57;99901.50;;;12.14;47.13
64792;BME280;51226;47.504;19.074;2023-04-26T06:42:00;99895.41;;;12.14;48.01
64792;BME280;51226;47.504;19.074;2023-04-26T06:45:06;99892.44;;;12.35;46.13
64792;BME280;51226;47.504;19.074;2023-04-26T06:48:09;99895.19;;;12.42;46.15
64792;BME280;51226;47.504;19.074;2023-04-26T06:51:12;99898.19;;;12.58;45.73
64792;BME280;51226;47.504;19.074;2023-04-26T06:54:14;99901.81;;;12.66;47.00
64792;BME280;51226;47.504;19.074;2023-04-26T06:57:17;99901.41;;;12.87;46.06
64792;BME280;51226;47.504;19.074;2023-04-26T07:00:20;99897.66;;;13.19;44.23
64792;BME280;51226;47.504;19.074;2023-04-26T07:03:23;99900.50;;;13.31;42.47
64792;BME280;51226;47.504;19.074;2023-04-26T07:06:26;99901.50;;;13.36;41.75
64792;BME280;51226;47.504;19.074;2023-04-26T07:09:28;99905.84;;;13.34;41.95
64792;BME280;51226;47.504;19.074;2023-04-26T07:12:31;99903.41;;;13.43;42.62
64792;BME280;51226;47.504;19.074;2023-04-26T07:15:34;99899.59;;;13.76;41.08
64792;BME280;51226;47.504;19.074;2023-04-26T07:18:38;99891.12;;;13.91;40.53
64792;BME280;51226;47.504;19.074;2023-04-26T07:21:43;99900.69;;;13.87;41.22
64792;BME280;51226;47.504;19.074;2023-04-26T07:24:46;99898.97;;;13.91;41.02
64792;BME280;51226;47.504;19.074;2023-04-26T07:27:48;99906.09;;;14.00;41.76
64792;BME280;51226;47.504;19.074;2023-04-26T07:30:53;99904.03;;;14.34;39.90
64792;BME280;51226;47.504;19.074;2023-04-26T07:33:55;99905.56;;;14.79;36.40
64792;BME280;51226;47.504;19.074;2023-04-26T07:36:58;99916.63;;;15.27;35.07
64792;BME280;51226;47.504;19.074;2023-04-26T07:40:01;99917.66;;;15.40;34.70
64792;BME280;51226;47.504;19.074;2023-04-26T07:43:06;99920.22;;;15.35;35.69
64792;BME280;51226;47.504;19.074;2023-04-26T07:46:08;99923.03;;;15.50;36.06
64792;BME280;51226;47.504;19.074;2023-04-26T07:49:12;99932.97;;;15.78;34.99
64792;BME280;51226;47.504;19.074;2023-04-26T07:52:14;99932.13;;;15.79;35.77
64792;BME280;51226;47.504;19.074;2023-04-26T07:55:17;99931.31;;;15.86;33.91
64792;BME280;51226;47.504;19.074;2023-04-26T07:58:20;99935.91;;;16.15;33.12
64792;BME280;51226;47.504;19.074;2023-04-26T08:01:22;99934.44;;;16.54;31.60
64792;BME280;51226;47.504;19.074;2023-04-26T08:04:31;99944.25;;;16.76;31.02
64792;BME280;51226;47.504;19.074;2023-04-26T08:07:35;99947.69;;;16.63;31.32
64792;BME280;51226;47.504;19.074;2023-04-26T08:10:41;99944.28;;;16.81;32.99
64792;BME280;51226;47.504;19.074;2023-04-26T08:13:43;99949.56;;;16.84;31.04
64792;BME280;51226;47.504;19.074;2023-04-26T08:16:48;99953.00;;;16.75;30.95
64792;BME280;51226;47.504;19.074;2023-04-26T08:19:50;99950.66;;;17.32;30.01
64792;BME280;51226;47.504;19.074;2023-04-26T08:22:56;99948.16;;;17.80;31.65
64792;BME280;51226;47.504;19.074;2023-04-26T08:25:59;99955.25;;;18.13;28.75
64792;BME280;51226;47.504;19.074;2023-04-26T08:29:02;99951.72;;;18.14;29.75
64792;BME280;51226;47.504;19.074;2023-04-26T08:32:04;99958.75;;;18.22;30.64
64792;BME280;51226;47.504;19.074;2023-04-26T08:35:07;99951.62;;;18.98;27.47
64792;BME280;51226;47.504;19.074;2023-04-26T08:38:11;99950.47;;;19.57;27.78
64792;BME280;51226;47.504;19.074;2023-04-26T08:41:14;99972.81;;;20.43;25.76
64792;BME280;51226;47.504;19.074;2023-04-26T08:44:16;99952.06;;;20.88;27.03
64792;BME280;51226;47.504;19.074;2023-04-26T08:47:27;99944.56;;;21.23;24.16
64792;BME280;51226;47.504;19.074;2023-04-26T08:50:30;99954.66;;;21.64;24.49
64792;BME280;51226;47.504;19.074;2023-04-26T08:53:35;99958.13;;;22.29;23.31
64792;BME280;51226;47.504;19.074;2023-04-26T08:56:38;99970.47;;;22.81;21.71
64792;BME280;51226;47.504;19.074;2023-04-26T08:59:42;99980.75;;;22.51;24.54
64792;BME280;51226;47.504;19.074;2023-04-26T09:02:46;99961.84;;;22.15;22.52
64792;BME280;51226;47.504;19.074;2023-04-26T09:05:49;99972.81;;;22.50;22.90
64792;BME280;51226;47.504;19.074;2023-04-26T09:08:51;99966.50;;;22.57;23.66
64792;BME280;51226;47.504;19.074;2023-04-26T09:11:57;99957.44;;;22.14;22.77
64792;BME280;51226;47.504;19.074;2023-04-26T09:15:01;99969.22;;;21.96;22.91
64792;BME280;51226;47.504;19.074;2023-04-26T09:18:17;99965.50;;;22.07;22.05
64792;BME280;51226;47.504;19.074;2023-04-26T09:21:19;99964.50;;;22.68;21.79
64792;BME280;51226;47.504;19.074;2023-04-26T09:24:22;99965.88;;;23.35;22.40
64792;BME280;51226;47.504;19.074;2023-04-26T09:27:35;99954.94;;;23.47;20.56
64792;BME280;51226;47.504;19.074;2023-04-26T09:30:38;99957.41;;;23.58;21.56
64792;BME280;51226;47.504;19.074;2023-04-26T09:37:13;99963.03;;;24.20;20.53
64792;BME280;51226;47.504;19.074;2023-04-26T09:40:19;99959.62;;;24.50;19.65
64792;BME280;51226;47.504;19.074;2023-04-26T09:43:23;99967.22;;;24.67;19.35
64792;BME280;51226;47.504;19.074;2023-04-26T09:46:25;99951.22;;;25.00;18.59
64792;BME280;51226;47.504;19.074;2023-04-26T09:49:30;99953.63;;;25.07;18.56
64792;BME280;51226;47.504;19.074;2023-04-26T09:52:41;99950.59;;;25.21;18.70
64792;BME280;51226;47.504;19.074;2023-04-26T09:55:44;99963.94;;;25.21;20.82
64792;BME280;51226;47.504;19.074;2023-04-26T10:01:49;99958.28;;;25.32;18.21
64792;BME280;51226;47.504;19.074;2023-04-26T10:04:52;99956.84;;;25.51;21.67
64792;BME280;51226;47.504;19.074;2023-04-26T10:07:55;99951.78;;;25.70;18.29
64792;BME280;51226;47.504;19.074;2023-04-26T10:10:59;99945.19;;;26.11;19.34
64792;BME280;51226;47.504;19.074;2023-04-26T10:14:03;99950.53;;;26.11;17.50
64792;BME280;51226;47.504;19.074;2023-04-26T10:17:05;99949.13;;;25.41;17.73
64792;BME280;51226;47.504;19.074;2023-04-26T10:20:10;99943.28;;;24.96;18.22
64792;BME280;51226;47.504;19.074;2023-04-26T10:23:17;99949.75;;;24.53;20.95
64792;BME280;51226;47.504;19.074;2023-04-26T10:45:28;99966.56;;;24.22;18.41
64792;BME280;51226;47.504;19.074;2023-04-26T10:48:31;99958.13;;;24.39;18.21
64792;BME280;51226;47.504;19.074;2023-04-26T10:51:34;99962.16;;;23.84;19.88
64792;BME280;51226;47.504;19.074;2023-04-26T10:54:56;99948.34;;;23.65;19.80
64792;BME280;51226;47.504;19.074;2023-04-26T10:57:59;99941.25;;;23.25;18.73
64792;BME280;51226;47.504;19.074;2023-04-26T11:01:06;99957.38;;;22.70;21.36
64792;BME280;51226;47.504;19.074;2023-04-26T11:04:10;99949.56;;;22.61;19.59
64792;BME280;51226;47.504;19.074;2023-04-26T11:07:13;99955.37;;;21.76;20.63
64792;BME280;51226;47.504;19.074;2023-04-26T11:10:21;99962.47;;;21.07;22.64
64792;BME280;51226;47.504;19.074;2023-04-26T11:13:24;99964.50;;;20.82;22.22
64792;BME280;51226;47.504;19.074;2023-04-26T11:16:27;99971.22;;;21.15;21.63
64792;BME280;51226;47.504;19.074;2023-04-26T11:19:30;99965.13;;;21.07;21.22
64792;BME280;51226;47.504;19.074;2023-04-26T11:22:33;99958.16;;;20.98;21.07
64792;BME280;51226;47.504;19.074;2023-04-26T11:25:37;99954.00;;;21.49;21.56
64792;BME280;51226;47.504;19.074;2023-04-26T11:28:40;99948.13;;;21.89;20.58
64792;BME280;51226;47.504;19.074;2023-04-26T11:31:52;99952.97;;;21.60;22.17
64792;BME280;51226;47.504;19.074;2023-04-26T11:34:58;99961.19;;;21.39;22.85
64792;BME280;51226;47.504;19.074;2023-04-26T11:38:02;99972.28;;;20.99;23.39
64792;BME280;51226;47.504;19.074;2023-04-26T11:41:05;99978.97;;;20.44;22.41
64792;BME280;51226;47.504;19.074;2023-04-26T11:44:10;99982.09;;;19.80;23.57
64792;BME280;51226;47.504;19.074;2023-04-26T11:47:15;99966.47;;;19.31;23.98
64792;BME280;51226;47.504;19.074;2023-04-26T11:50:18;99970.94;;;19.18;24.30
64792;BME280;51226;47.504;19.074;2023-04-26T11:53:22;99971.78;;;19.30;24.98
64792;BME280;51226;47.504;19.074;2023-04-26T11:56:26;99964.59;;;19.58;24.09
64792;BME280;51226;47.504;19.074;2023-04-26T11:59:29;99971.22;;;20.24;22.93
64792;BME280;51226;47.504;19.074;2023-04-26T12:02:34;99951.19;;;20.86;22.17
64792;BME280;51226;47.504;19.074;2023-04-26T12:05:37;99961.44;;;21.17;22.12
64792;BME280;51226;47.504;19.074;2023-04-26T12:08:39;99961.66;;;20.99;22.13
64792;BME280;51226;47.504;19.074;2023-04-26T12:11:52;99967.56;;;20.37;22.30
64792;BME280;51226;47.504;19.074;2023-04-26T12:14:55;99977.69;;;19.79;22.81
64792;BME280;51226;47.504;19.074;2023-04-26T12:17:58;99979.66;;;19.33;24.68
64792;BME280;51226;47.504;19.074;2023-04-26T12:21:01;99973.56;;;19.20;25.24
64792;BME280;51226;47.504;19.074;2023-04-26T12:24:04;99961.06;;;19.53;23.36
64792;BME280;51226;47.504;19.074;2023-04-26T12:27:07;99969.06;;;19.37;23.61
64792;BME280;51226;47.504;19.074;2023-04-26T12:30:10;99978.06;;;18.85;24.48
64792;BME280;51226;47.504;19.074;2023-04-26T12:33:13;99978.97;;;18.46;25.31
64792;BME280;51226;47.504;19.074;2023-04-26T12:36:19;99986.00;;;18.01;26.03
64792;BME280;51226;47.504;19.074;2023-04-26T12:39:22;99980.69;;;17.85;25.57
64792;BME280;51226;47.504;19.074;2023-04-26T12:42:25;99982.41;;;17.74;25.71
64792;BME280;51226;47.504;19.074;2023-04-26T12:45:27;99988.56;;;17.64;26.14
64792;BME280;51226;47.504;19.074;2023-04-26T12:48:30;99988.59;;;17.84;24.83
64792;BME280;51226;47.504;19.074;2023-04-26T12:51:33;99981.62;;;18.27;26.17
64792;BME280;51226;47.504;19.074;2023-04-26T12:54:36;99988.69;;;18.48;23.75
64792;BME280;51226;47.504;19.074;2023-04-26T12:57:39;99986.91;;;18.61;24.13
64792;BME280;51226;47.504;19.074;2023-04-26T13:00:42;99986.88;;;18.66;24.44
64792;BME280;51226;47.504;19.074;2023-04-26T13:03:45;99993.94;;;18.39;25.81
64792;BME280;51226;47.504;19.074;2023-04-26T13:06:49;99987.78;;;18.32;24.89
64792;BME280;51226;47.504;19.074;2023-04-26T13:09:51;99999.22;;;18.64;25.55
64792;BME280;51226;47.504;19.074;2023-04-26T13:12:54;100000.03;;;19.11;24.03
64792;BME280;51226;47.504;19.074;2023-04-26T13:15:58;99999.88;;;19.52;23.54
64792;BME280;51226;47.504;19.074;2023-04-26T13:19:01;100003.47;;;19.33;22.95
64792;BME280;51226;47.504;19.074;2023-04-26T13:22:04;99994.78;;;18.98;25.14
64792;BME280;51226;47.504;19.074;2023-04-26T13:25:09;99993.03;;;18.94;23.71
64792;BME280;51226;47.504;19.074;2023-04-26T13:28:14;100002.72;;;19.01;24.27
64792;BME280;51226;47.504;19.074;2023-04-26T13:31:17;100003.63;;;18.83;24.46
64792;BME280;51226;47.504;19.074;2023-04-26T13:34:20;100003.63;;;18.59;23.61
64792;BME280;51226;47.504;19.074;2023-04-26T13:37:25;100014.22;;;18.48;24.64
64792;BME280;51226;47.504;19.074;2023-04-26T13:40:27;100009.81;;;18.50;24.46
64792;BME280;51226;47.504;19.074;2023-04-26T13:43:30;100014.16;;;18.73;24.17
64792;BME280;51226;47.504;19.074;2023-04-26T13:46:33;100012.41;;;18.81;24.82
64792;BME280;51226;47.504;19.074;2023-04-26T13:49:37;100014.16;;;18.80;23.54
64792;BME280;51226;47.504;19.074;2023-04-26T13:52:39;100012.44;;;18.53;24.10
64792;BME280;51226;47.504;19.074;2023-04-26T13:55:42;100018.59;;;18.20;25.08
64792;BME280;51226;47.504;19.074;2023-04-26T13:58:44;100023.75;;;17.73;25.20
64792;BME280;51226;47.504;19.074;2023-04-26T14:01:47;100037.66;;;17.31;26.51
64792;BME280;51226;47.504;19.074;2023-04-26T14:04:50;100036.69;;;17.13;27.06
64792;BME280;51226;47.504;19.074;2023-04-26T14:07:53;100033.84;;;16.84;26.54
64792;BME280;51226;47.504;19.074;2023-04-26T14:10:56;100040.75;;;16.68;26.39
64792;BME280;51226;47.504;19.074;2023-04-26T14:13:59;100037.22;;;16.64;26.61
64792;BME280;51226;47.504;19.074;2023-04-26T14:17:02;100044.31;;;16.75;26.20
64792;BME280;51226;47.504;19.074;2023-04-26T14:20:05;100040.06;;;16.88;26.08
64792;BME280;51226;47.504;19.074;2023-04-26T14:23:09;100033.97;;;17.06;25.55
64792;BME280;51226;47.504;19.074;2023-04-26T14:26:12;100036.63;;;17.01;25.70
64792;BME280;51226;47.504;19.074;2023-04-26T14:29:15;100034.66;;;16.78;26.73
64792;BME280;51226;47.504;19.074;2023-04-26T14:32:17;100032.84;;;16.66;26.38
64792;BME280;51226;47.504;19.074;2023-04-26T14:35:20;100038.81;;;16.47;26.20
64792;BME280;51226;47.504;19.074;2023-04-26T14:38:22;100049.16;;;16.27;26.85
64792;BME280;51226;47.504;19.074;2023-04-26T14:41:26;100044.63;;;16.07;26.88
64792;BME280;51226;47.504;19.074;2023-04-26T14:44:29;100056.72;;;15.93;27.68
64792;BME280;51226;47.504;19.074;2023-04-26T14:47:32;100041.03;;;15.99;26.85
64792;BME280;51226;47.504;19.074;2023-04-26T14:50:34;100050.59;;;15.92;27.52
64792;BME280;51226;47.504;19.074;2023-04-26T14:53:40;100049.56;;;15.80;27.53
64792;BME280;51226;47.504;19.074;2023-04-26T14:56:42;100050.34;;;15.74;28.00
64792;BME280;51226;47.504;19.074;2023-04-26T14:59:46;100057.94;;;15.49;29.50
64792;BME280;51226;47.504;19.074;2023-04-26T15:02:49;100067.44;;;15.40;29.13
64792;BME280;51226;47.504;19.074;2023-04-26T15:05:52;100056.84;;;15.30;29.46
64792;BME280;51226;47.504;19.074;2023-04-26T15:08:54;100053.59;;;15.53;28.21
64792;BME280;51226;47.504;19.074;2023-04-26T15:11:57;100058.97;;;15.61;28.23
64792;BME280;51226;47.504;19.074;2023-04-26T15:15:00;100055.38;;;15.54;28.31
64792;BME280;51226;47.504;19.074;2023-04-26T15:18:03;100060.63;;;15.54;28.13
64792;BME280;51226;47.504;19.074;2023-04-26T15:21:05;100070.22;;;15.49;28.17
64792;BME280;51226;47.504;19.074;2023-04-26T15:24:08;100070.03;;;15.36;28.52
64792;BME280;51226;47.504;19.074;2023-04-26T15:27:11;100069.03;;;15.25;28.93
64792;BME280;51226;47.504;19.074;2023-04-26T15:30:14;100070.59;;;15.12;29.08
64792;BME280;51226;47.504;19.074;2023-04-26T15:33:16;100070.41;;;14.98;29.74
64792;BME280;51226;47.504;19.074;2023-04-26T15:36:20;100066.84;;;14.96;30.28
64792;BME280;51226;47.504;19.074;2023-04-26T15:39:23;100069.41;;;14.93;30.74
64792;BME280;51226;47.504;19.074;2023-04-26T15:42:25;100079.03;;;14.91;30.24
64792;BME280;51226;47.504;19.074;2023-04-26T15:45:28;100082.00;;;14.59;30.10
64792;BME280;51226;47.504;19.074;2023-04-26T15:48:31;100068.56;;;14.41;29.66
64792;BME280;51226;47.504;19.074;2023-04-26T15:51:33;100069.53;;;14.48;29.73
64792;BME280;51226;47.504;19.074;2023-04-26T15:54:36;100063.16;;;14.32;30.02
64792;BME280;51226;47.504;19.074;2023-04-26T15:57:40;100065.91;;;14.39;30.04
64792;BME280;51226;47.504;19.074;2023-04-26T16:00:43;100072.72;;;14.30;30.52
64792;BME280;51226;47.504;19.074;2023-04-26T16:03:45;100074.47;;;14.29;30.70
64792;BME280;51226;47.504;19.074;2023-04-26T16:06:49;100070.97;;;14.29;30.65
64792;BME280;51226;47.504;19.074;2023-04-26T16:09:51;100073.59;;;14.29;30.20
64792;BME280;51226;47.504;19.074;2023-04-26T16:12:54;100071.03;;;14.33;30.33
64792;BME280;51226;47.504;19.074;2023-04-26T16:15:57;100074.91;;;14.54;28.48
64792;BME280;51226;47.504;19.074;2023-04-26T16:19:01;100080.16;;;14.54;28.33
64792;BME280;51226;47.504;19.074;2023-04-26T16:22:03;100082.75;;;14.52;27.77